Weerstation
Sluispark-LeuvenLeuven-Sluispark

Weerstation
Wilsele-PutkapelWilsele-Putkapel



Nabijgelegen vliegvelden - METAR rapporten

   
EBBE - Wilsele bij Leuven
Gewijzigd: 29-11-2022 00:41
Nevel, Grotendeels bewolkt    Wind: varieert 3.7 km/h
Nevel, Grotendeels bewolkt
Wind: Wind: varieert 3.7 km/h
Temperatuur: 6°C
Dauwpunt: 6°C
Vochtigheid: 100%
Barometer: 1014 hPa
Bewolking: Grotendeels bewolkt
Zicht: 4 km
Bewolking: Licht bewolkt 1280.2 m,
Grotendeels bewolkt 5791.2 m
EBBE 282341Z AUTO VRB02KT 3500 BR FEW042/// BKN190/// 06/06 Q1014 YLO
EBAW - Antwerp
Gewijzigd: 29-11-2022 00:50
Mist, Helder    Wind: ZZO 3.7 km/h
Mist, Helder
Wind: Wind: ZZO 3.7 km/h
Temperatuur: 6°C
Dauwpunt: 6°C
Vochtigheid: 100%
Barometer: 1014 hPa
Bewolking: Helder
Zicht: 1 km
Bewolking: Helder
EBAW 282350Z AUTO 16002KT 0800 R11/1100U R29/1000U FG NCD 06/06 Q1014
EBLG - Li├Ęge
Gewijzigd: 29-11-2022 00:50
Nevel, Licht bewolkt    Wind: ZZW 5.6 km/h
Nevel, Licht bewolkt
Wind: Wind: ZZW 5.6 km/h
Temperatuur: 7°C
Voelt als: 6°C
Dauwpunt: 6°C
Vochtigheid: 93%
Barometer: 1014 hPa
Bewolking: Licht bewolkt
Zicht: 5 km
Bewolking: Licht bewolkt 640.1 m
EBLG 282350Z 20003KT 150V240 5000 BR FEW021 07/06 Q1014 TEMPO 4000 BR
EBCV - Mons/Bergen
Gewijzigd: 29-11-2022 00:55
Mist, Grotendeels bewolkt    Wind: Oosten 5.6 km/h
Mist, Grotendeels bewolkt
Wind: Wind: Oosten 5.6 km/h
Temperatuur: 4°C
Voelt als: 3°C
Dauwpunt: 4°C
Vochtigheid: 100%
Barometer: 1014 hPa
Bewolking: Grotendeels bewolkt
Zicht: 0 km
Bewolking: Licht bewolkt 396.2 m,
Grotendeels bewolkt 944.9 m
EBCV 282355Z AUTO 08003KT 0250 FG FEW013/// BKN031/// 04/04 Q1014 RED
EHBK - Maastricht
Gewijzigd: 29-11-2022 00:55
Gedeeltelijk bewolkt    Wind: ZW 9.3 km/h
Gedeeltelijk bewolkt
Wind: Wind: ZW 9.3 km/h
Temperatuur: 7°C
Voelt als: 5°C
Dauwpunt: 6°C
Vochtigheid: 93%
Barometer: 1014 hPa
Bewolking: Gedeeltelijk bewolkt
Zicht: meer dan 10 km
Bewolking: Gedeeltelijk bewolkt 548.6 m,
Gedeeltelijk bewolkt 792.5 m
EHBK 282355Z AUTO 23005KT 9999 SCT018 SCT026 07/06 Q1014
ELLX - Luxemburg
Gewijzigd: 29-11-2022 00:50
Nevel, Bewolking    Wind: Westen 7.4 km/h
Nevel, Bewolking
Wind: Wind: Westen 7.4 km/h
Temperatuur: 7°C
Voelt als: 6°C
Dauwpunt: 6°C
Vochtigheid: 93%
Barometer: 1014 hPa
Bewolking: Bewolking
Zicht: 4 km
Bewolking: Gedeeltelijk bewolkt 121.9 m,
Bewolking 609.6 m
ELLX 282350Z 28004KT 4000 BR SCT004 OVC020 07/06 Q1014 NOSIG
EBOS - Oostende
Gewijzigd: 29-11-2022 00:50
Mist, Gedeeltelijk bewolkt    Wind: ZZO 5.6 km/h
Mist, Gedeeltelijk bewolkt
Wind: Wind: ZZO 5.6 km/h
Temperatuur: 2°C
Voelt als: 1°C
Dauwpunt: 2°C
Vochtigheid: 100%
Barometer: 1014 hPa
Bewolking: Gedeeltelijk bewolkt
Zicht: 0 km
Bewolking: Gedeeltelijk bewolkt
EBOS 282350Z 15003KT 0200 R08/0550N R26/0600N FG NSC 02/02 Q1014 NOSIG
  

Script ontwikkeld door  Saratoga-weather.org Aangepast voor de template door  Weerstation Leuven

U vindt ons ook hier:

UK Metoffice

WeatherCloud

European Weather Network

Weather Underground

Benelux Weather Network

AWEKAS

WeatherlinkIP

HAMweather, WeatherForYou, PWS Weather

Het Weer Aktueel

Apparatuur in gebruik:

Weer-station
Davis VP2 weatherstation

Weer-programma
Meteobridge

Weer-computer
D-Link DIR-505

Davis VP2 weatherstation

Meteobridge

D-Link DIR-505